sensor_id;sensor_type;location;lat;lon;timestamp;P1;durP1;ratioP1;P2;durP2;ratioP2
679;SDS011;322;48.846;9.230;2024-03-22T00:02:14;21.43;;;12.63;;
679;SDS011;322;48.846;9.230;2024-03-22T00:04:41;21.10;;;12.70;;
679;SDS011;322;48.846;9.230;2024-03-22T00:07:07;19.07;;;12.33;;
679;SDS011;322;48.846;9.230;2024-03-22T00:09:34;24.80;;;12.80;;
679;SDS011;322;48.846;9.230;2024-03-22T00:12:00;19.83;;;12.70;;
679;SDS011;322;48.846;9.230;2024-03-22T00:14:27;18.10;;;11.13;;
679;SDS011;322;48.846;9.230;2024-03-22T00:16:54;22.90;;;13.70;;
679;SDS011;322;48.846;9.230;2024-03-22T00:19:22;18.37;;;12.10;;
679;SDS011;322;48.846;9.230;2024-03-22T00:21:48;22.23;;;13.27;;
679;SDS011;322;48.846;9.230;2024-03-22T00:24:15;20.83;;;12.90;;
679;SDS011;322;48.846;9.230;2024-03-22T00:26:41;18.53;;;13.17;;
679;SDS011;322;48.846;9.230;2024-03-22T00:29:08;19.17;;;12.70;;
679;SDS011;322;48.846;9.230;2024-03-22T00:31:34;20.83;;;13.47;;
679;SDS011;322;48.846;9.230;2024-03-22T00:34:01;19.03;;;12.40;;
679;SDS011;322;48.846;9.230;2024-03-22T00:36:28;19.63;;;12.33;;
679;SDS011;322;48.846;9.230;2024-03-22T00:38:55;22.17;;;12.60;;
679;SDS011;322;48.846;9.230;2024-03-22T00:41:22;20.57;;;13.23;;
679;SDS011;322;48.846;9.230;2024-03-22T00:43:49;21.13;;;12.90;;
679;SDS011;322;48.846;9.230;2024-03-22T00:46:15;21.63;;;13.10;;
679;SDS011;322;48.846;9.230;2024-03-22T00:48:42;19.23;;;11.93;;
679;SDS011;322;48.846;9.230;2024-03-22T00:51:08;21.17;;;13.57;;
679;SDS011;322;48.846;9.230;2024-03-22T00:53:37;19.70;;;12.57;;
679;SDS011;322;48.846;9.230;2024-03-22T00:56:03;19.27;;;12.70;;
679;SDS011;322;48.846;9.230;2024-03-22T00:58:30;24.23;;;13.53;;
679;SDS011;322;48.846;9.230;2024-03-22T01:00:56;18.07;;;11.73;;
679;SDS011;322;48.846;9.230;2024-03-22T01:03:24;18.40;;;12.63;;
679;SDS011;322;48.846;9.230;2024-03-22T01:05:50;18.90;;;13.40;;
679;SDS011;322;48.846;9.230;2024-03-22T01:08:17;25.00;;;13.60;;
679;SDS011;322;48.846;9.230;2024-03-22T01:10:44;20.50;;;13.90;;
679;SDS011;322;48.846;9.230;2024-03-22T01:13:11;20.27;;;12.80;;
679;SDS011;322;48.846;9.230;2024-03-22T01:15:37;21.20;;;13.07;;
679;SDS011;322;48.846;9.230;2024-03-22T01:18:04;20.83;;;12.80;;
679;SDS011;322;48.846;9.230;2024-03-22T01:20:30;22.47;;;13.60;;
679;SDS011;322;48.846;9.230;2024-03-22T01:22:58;19.30;;;12.57;;
679;SDS011;322;48.846;9.230;2024-03-22T01:25:25;22.03;;;12.90;;
679;SDS011;322;48.846;9.230;2024-03-22T01:27:53;20.13;;;12.70;;
679;SDS011;322;48.846;9.230;2024-03-22T01:30:21;22.63;;;12.67;;
679;SDS011;322;48.846;9.230;2024-03-22T01:32:48;19.60;;;13.13;;
679;SDS011;322;48.846;9.230;2024-03-22T01:35:14;17.87;;;11.80;;
679;SDS011;322;48.846;9.230;2024-03-22T01:37:41;17.77;;;11.43;;
679;SDS011;322;48.846;9.230;2024-03-22T01:40:07;20.43;;;11.50;;
679;SDS011;322;48.846;9.230;2024-03-22T01:42:35;21.83;;;13.10;;
679;SDS011;322;48.846;9.230;2024-03-22T01:45:02;18.90;;;12.00;;
679;SDS011;322;48.846;9.230;2024-03-22T01:47:30;20.20;;;12.57;;
679;SDS011;322;48.846;9.230;2024-03-22T01:49:56;19.70;;;11.90;;
679;SDS011;322;48.846;9.230;2024-03-22T01:52:24;20.87;;;13.37;;
679;SDS011;322;48.846;9.230;2024-03-22T01:54:50;24.30;;;13.20;;
679;SDS011;322;48.846;9.230;2024-03-22T01:57:17;18.07;;;11.37;;
679;SDS011;322;48.846;9.230;2024-03-22T01:59:43;20.07;;;12.40;;
679;SDS011;322;48.846;9.230;2024-03-22T02:02:11;20.53;;;12.80;;
679;SDS011;322;48.846;9.230;2024-03-22T02:04:38;19.43;;;11.80;;
679;SDS011;322;48.846;9.230;2024-03-22T02:07:05;19.90;;;12.53;;
679;SDS011;322;48.846;9.230;2024-03-22T02:09:31;19.90;;;12.60;;
679;SDS011;322;48.846;9.230;2024-03-22T02:11:58;19.63;;;12.40;;
679;SDS011;322;48.846;9.230;2024-03-22T02:14:24;20.33;;;12.40;;
679;SDS011;322;48.846;9.230;2024-03-22T02:16:51;19.53;;;12.60;;
679;SDS011;322;48.846;9.230;2024-03-22T02:19:19;17.00;;;12.50;;
679;SDS011;322;48.846;9.230;2024-03-22T02:21:46;20.63;;;11.63;;
679;SDS011;322;48.846;9.230;2024-03-22T02:24:13;21.20;;;13.60;;
679;SDS011;322;48.846;9.230;2024-03-22T02:26:40;20.63;;;12.10;;
679;SDS011;322;48.846;9.230;2024-03-22T02:29:07;18.80;;;11.67;;
679;SDS011;322;48.846;9.230;2024-03-22T02:31:33;17.33;;;11.00;;
679;SDS011;322;48.846;9.230;2024-03-22T02:34:00;18.70;;;12.07;;
679;SDS011;322;48.846;9.230;2024-03-22T02:36:26;20.00;;;12.57;;
679;SDS011;322;48.846;9.230;2024-03-22T02:38:54;24.30;;;13.53;;
679;SDS011;322;48.846;9.230;2024-03-22T02:41:21;19.17;;;12.60;;
679;SDS011;322;48.846;9.230;2024-03-22T02:43:48;20.50;;;13.43;;
679;SDS011;322;48.846;9.230;2024-03-22T02:46:14;18.50;;;12.43;;
679;SDS011;322;48.846;9.230;2024-03-22T02:48:41;21.27;;;12.37;;
679;SDS011;322;48.846;9.230;2024-03-22T02:51:07;20.20;;;12.53;;
679;SDS011;322;48.846;9.230;2024-03-22T02:53:34;20.07;;;12.20;;
679;SDS011;322;48.846;9.230;2024-03-22T02:56:00;21.10;;;13.10;;
679;SDS011;322;48.846;9.230;2024-03-22T02:58:29;19.17;;;12.33;;
679;SDS011;322;48.846;9.230;2024-03-22T03:00:55;19.63;;;12.30;;
679;SDS011;322;48.846;9.230;2024-03-22T03:03:22;19.40;;;12.03;;
679;SDS011;322;48.846;9.230;2024-03-22T03:05:48;18.80;;;12.70;;
679;SDS011;322;48.846;9.230;2024-03-22T03:08:15;21.70;;;13.80;;
679;SDS011;322;48.846;9.230;2024-03-22T03:10:41;19.80;;;12.40;;
679;SDS011;322;48.846;9.230;2024-03-22T03:13:08;22.80;;;12.90;;
679;SDS011;322;48.846;9.230;2024-03-22T03:15:35;20.63;;;13.27;;
679;SDS011;322;48.846;9.230;2024-03-22T03:18:02;21.23;;;14.43;;
679;SDS011;322;48.846;9.230;2024-03-22T03:20:29;22.57;;;13.97;;
679;SDS011;322;48.846;9.230;2024-03-22T03:22:56;22.20;;;14.30;;
679;SDS011;322;48.846;9.230;2024-03-22T03:25:24;23.27;;;15.60;;
679;SDS011;322;48.846;9.230;2024-03-22T03:27:52;26.00;;;16.13;;
679;SDS011;322;48.846;9.230;2024-03-22T03:30:18;22.07;;;14.90;;
679;SDS011;322;48.846;9.230;2024-03-22T03:32:46;22.03;;;14.30;;
679;SDS011;322;48.846;9.230;2024-03-22T03:35:12;21.40;;;14.13;;
679;SDS011;322;48.846;9.230;2024-03-22T03:37:39;23.17;;;14.87;;
679;SDS011;322;48.846;9.230;2024-03-22T03:40:06;22.77;;;14.20;;
679;SDS011;322;48.846;9.230;2024-03-22T03:42:34;23.63;;;13.90;;
679;SDS011;322;48.846;9.230;2024-03-22T03:45:00;24.83;;;15.73;;
679;SDS011;322;48.846;9.230;2024-03-22T03:47:27;22.50;;;15.10;;
679;SDS011;322;48.846;9.230;2024-03-22T03:49:54;24.03;;;16.03;;
679;SDS011;322;48.846;9.230;2024-03-22T03:52:21;21.90;;;15.57;;
679;SDS011;322;48.846;9.230;2024-03-22T03:54:47;23.70;;;15.53;;
679;SDS011;322;48.846;9.230;2024-03-22T03:57:14;24.27;;;14.83;;
679;SDS011;322;48.846;9.230;2024-03-22T03:59:40;24.30;;;14.73;;
679;SDS011;322;48.846;9.230;2024-03-22T04:02:07;22.60;;;15.10;;
679;SDS011;322;48.846;9.230;2024-03-22T04:04:33;23.83;;;14.67;;
679;SDS011;322;48.846;9.230;2024-03-22T04:07:01;24.63;;;14.70;;
679;SDS011;322;48.846;9.230;2024-03-22T04:09:28;20.77;;;13.33;;
679;SDS011;322;48.846;9.230;2024-03-22T04:11:55;22.30;;;14.77;;
679;SDS011;322;48.846;9.230;2024-03-22T04:14:24;25.23;;;15.23;;
679;SDS011;322;48.846;9.230;2024-03-22T04:16:51;26.20;;;14.40;;
679;SDS011;322;48.846;9.230;2024-03-22T04:19:17;21.20;;;13.93;;
679;SDS011;322;48.846;9.230;2024-03-22T04:21:44;22.30;;;12.77;;
679;SDS011;322;48.846;9.230;2024-03-22T04:24:11;22.20;;;12.90;;
679;SDS011;322;48.846;9.230;2024-03-22T04:26:38;26.10;;;13.87;;
679;SDS011;322;48.846;9.230;2024-03-22T04:29:04;20.83;;;13.07;;
679;SDS011;322;48.846;9.230;2024-03-22T04:31:31;23.00;;;14.47;;
679;SDS011;322;48.846;9.230;2024-03-22T04:33:57;22.00;;;14.03;;
679;SDS011;322;48.846;9.230;2024-03-22T04:36:24;21.10;;;13.20;;
679;SDS011;322;48.846;9.230;2024-03-22T04:38:50;23.80;;;13.20;;
679;SDS011;322;48.846;9.230;2024-03-22T04:41:18;22.70;;;13.20;;
679;SDS011;322;48.846;9.230;2024-03-22T04:43:45;20.73;;;13.33;;
679;SDS011;322;48.846;9.230;2024-03-22T04:46:12;24.27;;;14.77;;
679;SDS011;322;48.846;9.230;2024-03-22T04:48:39;22.03;;;12.43;;
679;SDS011;322;48.846;9.230;2024-03-22T04:51:05;20.60;;;14.00;;
679;SDS011;322;48.846;9.230;2024-03-22T04:53:32;18.67;;;11.90;;
679;SDS011;322;48.846;9.230;2024-03-22T04:55:58;21.30;;;12.63;;
679;SDS011;322;48.846;9.230;2024-03-22T04:58:27;21.07;;;11.97;;
679;SDS011;322;48.846;9.230;2024-03-22T05:00:56;19.00;;;11.87;;
679;SDS011;322;48.846;9.230;2024-03-22T05:03:24;19.40;;;12.80;;
679;SDS011;322;48.846;9.230;2024-03-22T05:05:50;18.93;;;12.03;;
679;SDS011;322;48.846;9.230;2024-03-22T05:08:17;21.00;;;12.27;;
679;SDS011;322;48.846;9.230;2024-03-22T05:10:43;18.40;;;11.97;;
679;SDS011;322;48.846;9.230;2024-03-22T05:13:10;18.57;;;11.30;;
679;SDS011;322;48.846;9.230;2024-03-22T05:15:37;17.37;;;11.27;;
679;SDS011;322;48.846;9.230;2024-03-22T05:18:04;21.20;;;12.60;;
679;SDS011;322;48.846;9.230;2024-03-22T05:20:30;20.60;;;12.40;;
679;SDS011;322;48.846;9.230;2024-03-22T05:22:57;18.00;;;11.50;;
679;SDS011;322;48.846;9.230;2024-03-22T05:25:24;20.30;;;12.00;;
679;SDS011;322;48.846;9.230;2024-03-22T05:27:51;19.20;;;11.90;;
679;SDS011;322;48.846;9.230;2024-03-22T05:30:17;20.17;;;11.20;;
679;SDS011;322;48.846;9.230;2024-03-22T05:32:45;21.40;;;11.77;;
679;SDS011;322;48.846;9.230;2024-03-22T05:35:11;19.80;;;11.50;;
679;SDS011;322;48.846;9.230;2024-03-22T05:37:38;18.30;;;13.20;;
679;SDS011;322;48.846;9.230;2024-03-22T05:40:05;18.17;;;11.33;;
679;SDS011;322;48.846;9.230;2024-03-22T05:42:34;19.00;;;12.03;;
679;SDS011;322;48.846;9.230;2024-03-22T05:45:00;19.30;;;12.13;;
679;SDS011;322;48.846;9.230;2024-03-22T05:47:27;18.53;;;12.07;;
679;SDS011;322;48.846;9.230;2024-03-22T05:49:55;15.80;;;10.67;;
679;SDS011;322;48.846;9.230;2024-03-22T05:52:21;18.33;;;10.93;;
679;SDS011;322;48.846;9.230;2024-03-22T05:54:48;17.20;;;11.30;;
679;SDS011;322;48.846;9.230;2024-03-22T05:57:16;20.13;;;11.53;;
679;SDS011;322;48.846;9.230;2024-03-22T05:59:42;16.43;;;11.03;;
679;SDS011;322;48.846;9.230;2024-03-22T06:02:09;20.87;;;11.43;;
679;SDS011;322;48.846;9.230;2024-03-22T06:04:35;18.27;;;10.77;;
679;SDS011;322;48.846;9.230;2024-03-22T06:07:04;18.23;;;11.80;;
679;SDS011;322;48.846;9.230;2024-03-22T06:09:31;15.50;;;10.50;;
679;SDS011;322;48.846;9.230;2024-03-22T06:12:03;18.43;;;11.00;;
679;SDS011;322;48.846;9.230;2024-03-22T06:14:30;17.43;;;11.20;;
679;SDS011;322;48.846;9.230;2024-03-22T06:16:57;18.70;;;11.90;;
679;SDS011;322;48.846;9.230;2024-03-22T06:19:23;19.47;;;11.80;;
679;SDS011;322;48.846;9.230;2024-03-22T06:21:51;19.23;;;11.63;;
679;SDS011;322;48.846;9.230;2024-03-22T06:24:18;20.00;;;11.97;;
679;SDS011;322;48.846;9.230;2024-03-22T06:26:45;18.53;;;11.47;;
679;SDS011;322;48.846;9.230;2024-03-22T06:29:11;19.80;;;12.03;;
679;SDS011;322;48.846;9.230;2024-03-22T06:31:39;21.50;;;12.07;;
679;SDS011;322;48.846;9.230;2024-03-22T06:34:05;19.23;;;11.77;;
679;SDS011;322;48.846;9.230;2024-03-22T06:36:32;16.80;;;10.87;;
679;SDS011;322;48.846;9.230;2024-03-22T06:38:58;19.20;;;11.43;;
679;SDS011;322;48.846;9.230;2024-03-22T06:41:27;18.97;;;11.40;;
679;SDS011;322;48.846;9.230;2024-03-22T06:43:54;20.30;;;11.57;;
679;SDS011;322;48.846;9.230;2024-03-22T06:46:21;18.50;;;11.80;;
679;SDS011;322;48.846;9.230;2024-03-22T06:48:48;18.00;;;11.40;;
679;SDS011;322;48.846;9.230;2024-03-22T06:51:15;17.80;;;11.73;;
679;SDS011;322;48.846;9.230;2024-03-22T06:53:41;17.63;;;11.70;;
679;SDS011;322;48.846;9.230;2024-03-22T06:56:08;16.63;;;10.70;;
679;SDS011;322;48.846;9.230;2024-03-22T06:58:38;18.73;;;11.47;;
679;SDS011;322;48.846;9.230;2024-03-22T07:01:05;21.57;;;11.50;;
679;SDS011;322;48.846;9.230;2024-03-22T07:03:31;19.07;;;11.57;;
679;SDS011;322;48.846;9.230;2024-03-22T07:05:58;17.43;;;11.17;;
679;SDS011;322;48.846;9.230;2024-03-22T07:08:26;16.33;;;11.80;;
679;SDS011;322;48.846;9.230;2024-03-22T07:10:53;20.43;;;11.93;;
679;SDS011;322;48.846;9.230;2024-03-22T07:13:19;18.40;;;11.70;;
679;SDS011;322;48.846;9.230;2024-03-22T07:15:48;16.60;;;10.30;;
679;SDS011;322;48.846;9.230;2024-03-22T07:18:14;18.60;;;10.40;;
679;SDS011;322;48.846;9.230;2024-03-22T07:20:41;19.03;;;10.57;;
679;SDS011;322;48.846;9.230;2024-03-22T07:23:08;19.47;;;11.07;;
679;SDS011;322;48.846;9.230;2024-03-22T07:25:35;17.40;;;9.73;;
679;SDS011;322;48.846;9.230;2024-03-22T07:28:01;19.20;;;11.80;;
679;SDS011;322;48.846;9.230;2024-03-22T07:30:28;17.83;;;11.30;;
679;SDS011;322;48.846;9.230;2024-03-22T07:32:55;18.90;;;12.77;;
679;SDS011;322;48.846;9.230;2024-03-22T07:35:22;21.07;;;12.27;;
679;SDS011;322;48.846;9.230;2024-03-22T07:37:50;19.83;;;12.70;;
679;SDS011;322;48.846;9.230;2024-03-22T07:40:17;22.33;;;11.67;;
679;SDS011;322;48.846;9.230;2024-03-22T07:42:43;20.27;;;12.50;;
679;SDS011;322;48.846;9.230;2024-03-22T07:45:10;17.33;;;12.60;;
679;SDS011;322;48.846;9.230;2024-03-22T07:47:36;22.80;;;13.00;;
679;SDS011;322;48.846;9.230;2024-03-22T07:50:05;18.20;;;13.63;;
679;SDS011;322;48.846;9.230;2024-03-22T07:52:32;17.10;;;11.90;;
679;SDS011;322;48.846;9.230;2024-03-22T07:54:59;22.07;;;13.03;;
679;SDS011;322;48.846;9.230;2024-03-22T07:57:27;23.53;;;13.17;;
679;SDS011;322;48.846;9.230;2024-03-22T07:59:56;20.83;;;12.60;;
679;SDS011;322;48.846;9.230;2024-03-22T08:02:22;19.53;;;12.10;;
679;SDS011;322;48.846;9.230;2024-03-22T08:04:49;18.90;;;11.93;;
679;SDS011;322;48.846;9.230;2024-03-22T08:07:16;19.47;;;12.60;;
679;SDS011;322;48.846;9.230;2024-03-22T08:09:43;17.73;;;11.73;;
679;SDS011;322;48.846;9.230;2024-03-22T08:12:09;18.50;;;11.10;;
679;SDS011;322;48.846;9.230;2024-03-22T08:14:36;18.97;;;11.47;;
679;SDS011;322;48.846;9.230;2024-03-22T08:17:02;16.60;;;10.13;;
679;SDS011;322;48.846;9.230;2024-03-22T08:19:30;17.37;;;11.53;;
679;SDS011;322;48.846;9.230;2024-03-22T08:21:56;18.87;;;10.80;;
679;SDS011;322;48.846;9.230;2024-03-22T08:24:24;18.13;;;10.70;;
679;SDS011;322;48.846;9.230;2024-03-22T08:26:50;18.70;;;10.43;;
679;SDS011;322;48.846;9.230;2024-03-22T08:29:17;17.10;;;11.17;;
679;SDS011;322;48.846;9.230;2024-03-22T08:31:43;18.10;;;11.30;;
679;SDS011;322;48.846;9.230;2024-03-22T08:34:10;17.60;;;10.77;;
679;SDS011;322;48.846;9.230;2024-03-22T08:36:36;16.10;;;10.80;;
679;SDS011;322;48.846;9.230;2024-03-22T08:39:03;17.27;;;10.83;;
679;SDS011;322;48.846;9.230;2024-03-22T08:41:32;16.93;;;11.80;;
679;SDS011;322;48.846;9.230;2024-03-22T08:43:59;17.90;;;11.07;;
679;SDS011;322;48.846;9.230;2024-03-22T08:46:24;16.70;;;10.03;;
679;SDS011;322;48.846;9.230;2024-03-22T08:48:52;17.10;;;9.80;;
679;SDS011;322;48.846;9.230;2024-03-22T08:51:19;16.77;;;10.60;;
679;SDS011;322;48.846;9.230;2024-03-22T08:53:47;17.70;;;10.10;;
679;SDS011;322;48.846;9.230;2024-03-22T08:56:13;16.33;;;10.47;;
679;SDS011;322;48.846;9.230;2024-03-22T08:58:41;15.57;;;9.20;;
679;SDS011;322;48.846;9.230;2024-03-22T09:01:07;13.77;;;9.50;;
679;SDS011;322;48.846;9.230;2024-03-22T09:03:35;16.10;;;9.50;;
679;SDS011;322;48.846;9.230;2024-03-22T09:06:01;12.67;;;9.00;;
679;SDS011;322;48.846;9.230;2024-03-22T09:08:29;15.10;;;9.53;;
679;SDS011;322;48.846;9.230;2024-03-22T09:10:56;13.53;;;9.03;;
679;SDS011;322;48.846;9.230;2024-03-22T09:13:23;16.13;;;9.50;;
679;SDS011;322;48.846;9.230;2024-03-22T09:15:57;14.87;;;9.20;;
679;SDS011;322;48.846;9.230;2024-03-22T09:18:24;13.90;;;8.70;;
679;SDS011;322;48.846;9.230;2024-03-22T09:20:50;12.63;;;8.60;;
679;SDS011;322;48.846;9.230;2024-03-22T09:23:18;13.80;;;9.37;;
679;SDS011;322;48.846;9.230;2024-03-22T09:25:44;15.83;;;9.43;;
679;SDS011;322;48.846;9.230;2024-03-22T09:28:12;14.83;;;9.23;;
679;SDS011;322;48.846;9.230;2024-03-22T09:30:38;16.87;;;9.37;;
679;SDS011;322;48.846;9.230;2024-03-22T09:33:06;14.60;;;8.50;;
679;SDS011;322;48.846;9.230;2024-03-22T09:35:33;13.40;;;8.37;;
679;SDS011;322;48.846;9.230;2024-03-22T09:38:00;15.80;;;9.53;;
679;SDS011;322;48.846;9.230;2024-03-22T09:40:27;13.43;;;8.40;;
679;SDS011;322;48.846;9.230;2024-03-22T09:42:54;14.77;;;9.33;;
679;SDS011;322;48.846;9.230;2024-03-22T09:45:27;14.80;;;8.97;;
679;SDS011;322;48.846;9.230;2024-03-22T09:47:56;13.23;;;9.00;;
679;SDS011;322;48.846;9.230;2024-03-22T09:50:24;16.33;;;9.70;;
679;SDS011;322;48.846;9.230;2024-03-22T09:52:51;15.27;;;9.47;;
679;SDS011;322;48.846;9.230;2024-03-22T09:55:19;14.17;;;7.73;;
679;SDS011;322;48.846;9.230;2024-03-22T09:57:48;14.07;;;8.07;;
679;SDS011;322;48.846;9.230;2024-03-22T10:00:16;15.23;;;8.53;;
679;SDS011;322;48.846;9.230;2024-03-22T10:02:45;14.20;;;8.67;;
679;SDS011;322;48.846;9.230;2024-03-22T10:05:12;15.63;;;7.90;;
679;SDS011;322;48.846;9.230;2024-03-22T10:07:40;14.80;;;8.70;;
679;SDS011;322;48.846;9.230;2024-03-22T10:10:06;12.23;;;8.20;;
679;SDS011;322;48.846;9.230;2024-03-22T10:12:34;11.63;;;7.93;;
679;SDS011;322;48.846;9.230;2024-03-22T10:15:00;17.07;;;9.10;;
679;SDS011;322;48.846;9.230;2024-03-22T10:17:27;16.90;;;7.93;;
679;SDS011;322;48.846;9.230;2024-03-22T10:19:54;15.63;;;8.07;;
679;SDS011;322;48.846;9.230;2024-03-22T10:22:21;14.20;;;7.00;;
679;SDS011;322;48.846;9.230;2024-03-22T10:24:51;13.47;;;7.37;;
679;SDS011;322;48.846;9.230;2024-03-22T10:27:18;11.40;;;7.00;;
679;SDS011;322;48.846;9.230;2024-03-22T10:29:45;13.70;;;8.33;;
679;SDS011;322;48.846;9.230;2024-03-22T10:32:13;13.40;;;7.83;;
679;SDS011;322;48.846;9.230;2024-03-22T10:34:41;12.20;;;8.13;;
679;SDS011;322;48.846;9.230;2024-03-22T10:37:11;15.70;;;7.70;;
679;SDS011;322;48.846;9.230;2024-03-22T10:39:41;11.90;;;7.60;;
679;SDS011;322;48.846;9.230;2024-03-22T10:42:10;13.00;;;7.43;;
679;SDS011;322;48.846;9.230;2024-03-22T10:44:37;11.30;;;5.77;;
679;SDS011;322;48.846;9.230;2024-03-22T10:47:05;11.63;;;6.20;;
679;SDS011;322;48.846;9.230;2024-03-22T10:49:36;9.60;;;4.57;;
679;SDS011;322;48.846;9.230;2024-03-22T10:52:03;11.53;;;5.57;;
679;SDS011;322;48.846;9.230;2024-03-22T10:54:33;10.73;;;5.73;;
679;SDS011;322;48.846;9.230;2024-03-22T10:57:03;11.97;;;7.33;;
679;SDS011;322;48.846;9.230;2024-03-22T10:59:34;11.50;;;6.30;;
679;SDS011;322;48.846;9.230;2024-03-22T11:02:02;14.60;;;6.77;;
679;SDS011;322;48.846;9.230;2024-03-22T11:04:32;12.70;;;6.23;;
679;SDS011;322;48.846;9.230;2024-03-22T11:06:59;13.60;;;6.17;;
679;SDS011;322;48.846;9.230;2024-03-22T11:09:27;10.87;;;6.30;;
679;SDS011;322;48.846;9.230;2024-03-22T11:11:54;10.97;;;6.90;;
679;SDS011;322;48.846;9.230;2024-03-22T11:14:24;10.20;;;5.80;;
679;SDS011;322;48.846;9.230;2024-03-22T11:16:51;10.80;;;5.23;;
679;SDS011;322;48.846;9.230;2024-03-22T11:19:19;11.50;;;5.97;;
679;SDS011;322;48.846;9.230;2024-03-22T11:21:45;11.17;;;5.67;;
679;SDS011;322;48.846;9.230;2024-03-22T11:24:12;10.70;;;6.03;;
679;SDS011;322;48.846;9.230;2024-03-22T11:26:38;12.87;;;6.10;;
679;SDS011;322;48.846;9.230;2024-03-22T11:29:05;9.70;;;5.43;;
679;SDS011;322;48.846;9.230;2024-03-22T11:31:31;10.60;;;5.40;;
679;SDS011;322;48.846;9.230;2024-03-22T11:34:00;10.30;;;5.50;;
679;SDS011;322;48.846;9.230;2024-03-22T11:36:26;10.50;;;5.60;;
679;SDS011;322;48.846;9.230;2024-03-22T11:38:53;9.73;;;3.90;;
679;SDS011;322;48.846;9.230;2024-03-22T11:41:20;8.50;;;4.00;;
679;SDS011;322;48.846;9.230;2024-03-22T11:43:50;10.67;;;5.20;;
679;SDS011;322;48.846;9.230;2024-03-22T11:46:17;14.20;;;4.70;;
679;SDS011;322;48.846;9.230;2024-03-22T11:48:50;9.10;;;4.43;;
679;SDS011;322;48.846;9.230;2024-03-22T11:51:18;11.37;;;4.47;;
679;SDS011;322;48.846;9.230;2024-03-22T11:53:48;11.03;;;4.27;;
679;SDS011;322;48.846;9.230;2024-03-22T11:56:17;9.93;;;4.47;;
679;SDS011;322;48.846;9.230;2024-03-22T11:58:45;8.70;;;3.97;;
679;SDS011;322;48.846;9.230;2024-03-22T12:01:12;9.50;;;4.60;;
679;SDS011;322;48.846;9.230;2024-03-22T12:03:42;8.07;;;4.03;;
679;SDS011;322;48.846;9.230;2024-03-22T12:06:09;10.50;;;4.70;;
679;SDS011;322;48.846;9.230;2024-03-22T12:08:38;11.33;;;4.73;;
679;SDS011;322;48.846;9.230;2024-03-22T12:11:06;8.60;;;3.43;;
679;SDS011;322;48.846;9.230;2024-03-22T12:13:34;11.50;;;4.10;;
679;SDS011;322;48.846;9.230;2024-03-22T12:16:00;10.93;;;3.60;;
679;SDS011;322;48.846;9.230;2024-03-22T12:18:28;12.37;;;4.73;;
679;SDS011;322;48.846;9.230;2024-03-22T12:20:54;12.53;;;3.67;;
679;SDS011;322;48.846;9.230;2024-03-22T12:23:21;7.87;;;3.37;;
679;SDS011;322;48.846;9.230;2024-03-22T12:25:48;10.00;;;3.77;;
679;SDS011;322;48.846;9.230;2024-03-22T12:28:16;8.67;;;3.47;;
679;SDS011;322;48.846;9.230;2024-03-22T12:30:42;8.73;;;3.40;;
679;SDS011;322;48.846;9.230;2024-03-22T12:33:09;8.87;;;3.30;;
679;SDS011;322;48.846;9.230;2024-03-22T12:35:35;8.80;;;3.97;;
679;SDS011;322;48.846;9.230;2024-03-22T12:38:03;9.30;;;3.87;;
679;SDS011;322;48.846;9.230;2024-03-22T12:40:29;7.90;;;2.90;;
679;SDS011;322;48.846;9.230;2024-03-22T12:42:59;9.27;;;3.90;;
679;SDS011;322;48.846;9.230;2024-03-22T12:45:25;12.70;;;3.87;;
679;SDS011;322;48.846;9.230;2024-03-22T12:47:52;12.37;;;3.90;;
679;SDS011;322;48.846;9.230;2024-03-22T12:50:18;9.00;;;3.10;;
679;SDS011;322;48.846;9.230;2024-03-22T12:52:46;11.60;;;4.27;;
679;SDS011;322;48.846;9.230;2024-03-22T12:55:12;12.80;;;4.87;;
679;SDS011;322;48.846;9.230;2024-03-22T12:57:39;9.10;;;4.17;;
679;SDS011;322;48.846;9.230;2024-03-22T13:00:07;9.73;;;3.60;;
679;SDS011;322;48.846;9.230;2024-03-22T13:02:38;8.60;;;3.87;;
679;SDS011;322;48.846;9.230;2024-03-22T13:05:05;8.67;;;4.03;;
679;SDS011;322;48.846;9.230;2024-03-22T13:07:32;10.40;;;3.93;;
679;SDS011;322;48.846;9.230;2024-03-22T13:09:59;9.73;;;3.30;;
679;SDS011;322;48.846;9.230;2024-03-22T13:12:26;8.90;;;3.53;;
679;SDS011;322;48.846;9.230;2024-03-22T13:14:52;10.30;;;3.90;;
679;SDS011;322;48.846;9.230;2024-03-22T13:17:21;9.40;;;4.00;;
679;SDS011;322;48.846;9.230;2024-03-22T13:19:47;11.63;;;4.10;;
679;SDS011;322;48.846;9.230;2024-03-22T13:22:14;8.47;;;3.57;;
679;SDS011;322;48.846;9.230;2024-03-22T13:24:43;9.93;;;3.83;;
679;SDS011;322;48.846;9.230;2024-03-22T13:27:10;8.30;;;3.93;;
679;SDS011;322;48.846;9.230;2024-03-22T13:29:37;9.20;;;3.10;;
679;SDS011;322;48.846;9.230;2024-03-22T13:32:05;9.87;;;4.10;;
679;SDS011;322;48.846;9.230;2024-03-22T13:34:34;8.23;;;3.60;;
679;SDS011;322;48.846;9.230;2024-03-22T13:37:01;8.67;;;4.67;;
679;SDS011;322;48.846;9.230;2024-03-22T13:39:28;11.87;;;5.30;;
679;SDS011;322;48.846;9.230;2024-03-22T13:41:55;10.10;;;4.80;;
679;SDS011;322;48.846;9.230;2024-03-22T13:44:21;10.87;;;4.53;;
679;SDS011;322;48.846;9.230;2024-03-22T13:46:49;15.40;;;4.77;;
679;SDS011;322;48.846;9.230;2024-03-22T13:49:16;12.57;;;4.73;;
679;SDS011;322;48.846;9.230;2024-03-22T13:51:47;8.83;;;3.97;;
679;SDS011;322;48.846;9.230;2024-03-22T13:54:13;12.43;;;3.70;;
679;SDS011;322;48.846;9.230;2024-03-22T13:56:41;8.57;;;3.60;;
679;SDS011;322;48.846;9.230;2024-03-22T13:59:07;9.90;;;4.27;;
679;SDS011;322;48.846;9.230;2024-03-22T14:01:35;9.98;;;4.05;;
679;SDS011;322;48.846;9.230;2024-03-22T14:04:01;8.50;;;3.67;;
679;SDS011;322;48.846;9.230;2024-03-22T14:06:30;9.40;;;4.10;;
679;SDS011;322;48.846;9.230;2024-03-22T14:08:59;11.10;;;3.90;;
679;SDS011;322;48.846;9.230;2024-03-22T14:11:27;10.03;;;3.97;;
679;SDS011;322;48.846;9.230;2024-03-22T14:13:53;9.37;;;3.30;;
679;SDS011;322;48.846;9.230;2024-03-22T14:16:20;9.70;;;3.40;;
679;SDS011;322;48.846;9.230;2024-03-22T14:18:46;9.73;;;3.67;;
679;SDS011;322;48.846;9.230;2024-03-22T14:21:14;14.57;;;4.20;;
679;SDS011;322;48.846;9.230;2024-03-22T14:23:44;11.80;;;3.83;;
679;SDS011;322;48.846;9.230;2024-03-22T14:26:13;9.40;;;3.60;;
679;SDS011;322;48.846;9.230;2024-03-22T14:28:40;10.50;;;4.07;;
679;SDS011;322;48.846;9.230;2024-03-22T14:31:08;13.03;;;5.47;;
679;SDS011;322;48.846;9.230;2024-03-22T14:33:34;11.80;;;3.67;;
679;SDS011;322;48.846;9.230;2024-03-22T14:36:02;9.47;;;3.60;;
679;SDS011;322;48.846;9.230;2024-03-22T14:38:29;10.60;;;3.20;;
679;SDS011;322;48.846;9.230;2024-03-22T14:40:56;7.90;;;2.00;;
679;SDS011;322;48.846;9.230;2024-03-22T14:43:24;7.87;;;2.40;;
679;SDS011;322;48.846;9.230;2024-03-22T14:45:52;7.83;;;1.97;;
679;SDS011;322;48.846;9.230;2024-03-22T14:48:19;6.70;;;1.93;;
679;SDS011;322;48.846;9.230;2024-03-22T14:50:46;9.40;;;2.70;;
679;SDS011;322;48.846;9.230;2024-03-22T14:53:12;7.40;;;1.83;;
679;SDS011;322;48.846;9.230;2024-03-22T14:55:39;9.00;;;2.47;;
679;SDS011;322;48.846;9.230;2024-03-22T14:58:06;6.40;;;1.60;;
679;SDS011;322;48.846;9.230;2024-03-22T15:00:34;8.70;;;2.33;;
679;SDS011;322;48.846;9.230;2024-03-22T15:03:00;6.93;;;2.00;;
679;SDS011;322;48.846;9.230;2024-03-22T15:05:27;8.10;;;1.97;;
679;SDS011;322;48.846;9.230;2024-03-22T15:07:55;6.90;;;1.63;;
679;SDS011;322;48.846;9.230;2024-03-22T15:10:22;7.63;;;1.60;;
679;SDS011;322;48.846;9.230;2024-03-22T15:12:49;8.73;;;2.37;;
679;SDS011;322;48.846;9.230;2024-03-22T15:15:16;9.03;;;2.33;;
679;SDS011;322;48.846;9.230;2024-03-22T15:17:44;7.00;;;1.93;;
679;SDS011;322;48.846;9.230;2024-03-22T15:20:11;11.03;;;2.23;;
679;SDS011;322;48.846;9.230;2024-03-22T15:22:37;6.70;;;1.80;;
679;SDS011;322;48.846;9.230;2024-03-22T15:25:04;9.13;;;1.90;;